createdAt,value
2016-06-25T00:00:30.249Z,0
2016-06-25T00:01:30.882Z,0
2016-06-25T00:02:29.595Z,0
2016-06-25T00:03:30.203Z,0
2016-06-25T00:04:30.823Z,0
2016-06-25T00:05:29.779Z,0
2016-06-25T00:06:29.609Z,0
2016-06-25T00:07:30.170Z,0
2016-06-25T00:08:30.758Z,0
2016-06-25T00:09:30.778Z,0
2016-06-25T00:10:30.758Z,0
2016-06-25T00:11:30.141Z,0
2016-06-25T00:12:29.520Z,0
2016-06-25T00:13:30.105Z,0
2016-06-25T00:14:29.478Z,0
2016-06-25T00:15:28.869Z,0
2016-06-25T00:16:29.478Z,0
2016-06-25T00:17:28.844Z,0
2016-06-25T00:18:30.694Z,0
2016-06-25T00:19:30.077Z,0
2016-06-25T00:20:30.663Z,0
2016-06-25T00:21:28.832Z,0
2016-06-25T00:22:28.798Z,0
2016-06-25T00:23:29.399Z,0
2016-06-25T00:24:30.010Z,0
2016-06-25T00:25:29.384Z,0
2016-06-25T00:26:29.402Z,0
2016-06-25T00:27:30.604Z,0
2016-06-25T00:28:29.974Z,0
2016-06-25T00:29:30.587Z,0
2016-06-25T00:30:28.729Z,0
2016-06-25T00:31:30.549Z,0
2016-06-25T00:32:29.314Z,0
2016-06-25T00:33:29.944Z,0
2016-06-25T00:34:29.297Z,0
2016-06-25T00:35:29.313Z,0
2016-06-25T00:36:29.897Z,0
2016-06-25T00:37:29.913Z,0
2016-06-25T00:38:29.282Z,0
2016-06-25T00:39:29.267Z,0
2016-06-25T00:40:29.861Z,0
2016-06-25T00:41:29.245Z,0
2016-06-25T00:42:29.842Z,0
2016-06-25T00:43:29.217Z,0
2016-06-25T00:44:29.224Z,0
2016-06-25T00:45:28.613Z,0
2016-06-25T00:46:29.213Z,0
2016-06-25T00:47:29.800Z,0
2016-06-25T00:48:30.393Z,0
2016-06-25T00:49:29.173Z,0
2016-06-25T00:50:29.157Z,0
2016-06-25T00:51:29.155Z,0
2016-06-25T00:52:29.749Z,0
2016-06-25T00:53:29.746Z,0
2016-06-25T00:54:29.744Z,0
2016-06-25T00:55:30.345Z,0
2016-06-25T00:56:30.343Z,0
2016-06-25T00:57:30.319Z,0
2016-06-25T00:58:29.699Z,0
2016-06-25T00:59:29.113Z,0
2016-06-25T01:00:29.119Z,0
2016-06-25T01:01:29.059Z,0
2016-06-25T01:02:29.674Z,0
2016-06-25T01:03:29.679Z,0
2016-06-25T01:04:29.647Z,0
2016-06-25T01:05:28.402Z,0
2016-06-25T01:06:29.022Z,0
2016-06-25T01:07:30.222Z,0
2016-06-25T01:08:29.627Z,0
2016-06-25T01:09:28.989Z,0
2016-06-25T01:10:30.190Z,0
2016-06-25T01:11:28.366Z,0
2016-06-25T01:12:30.188Z,0
2016-06-25T01:13:29.566Z,0
2016-06-25T01:14:28.941Z,0
2016-06-25T01:15:28.934Z,0
2016-06-25T01:16:28.913Z,0
2016-06-25T01:17:29.583Z,0
2016-06-25T01:18:29.514Z,0
2016-06-25T01:19:29.525Z,0
2016-06-25T01:20:30.112Z,0
2016-06-25T01:21:28.268Z,0
2016-06-25T01:22:28.870Z,0
2016-06-25T01:23:28.899Z,0
2016-06-25T01:24:29.459Z,0
2016-06-25T01:25:28.833Z,0
2016-06-25T01:26:30.050Z,0
2016-06-25T01:27:29.442Z,0
2016-06-25T01:28:30.046Z,0
2016-06-25T01:29:30.050Z,0
2016-06-25T01:30:29.422Z,0
2016-06-25T01:31:28.786Z,0
2016-06-25T01:32:30.013Z,0
2016-06-25T01:33:28.775Z,0
2016-06-25T01:34:30.011Z,0
2016-06-25T01:35:28.770Z,0
2016-06-25T01:36:29.351Z,0
2016-06-25T01:37:28.761Z,0
2016-06-25T01:38:29.359Z,0
2016-06-25T01:39:29.950Z,0
2016-06-25T01:40:28.707Z,0
2016-06-25T01:41:28.722Z,0
2016-06-25T01:42:28.691Z,0
2016-06-25T01:43:29.299Z,0
2016-06-25T01:44:29.288Z,0
2016-06-25T01:45:28.031Z,0
2016-06-25T01:46:28.682Z,0
2016-06-25T01:47:29.227Z,0
2016-06-25T01:48:29.240Z,0
2016-06-25T01:49:28.615Z,0
2016-06-25T01:50:29.827Z,0
2016-06-25T01:51:29.218Z,0
2016-06-25T01:52:28.599Z,0
2016-06-25T01:53:29.852Z,0
2016-06-25T01:54:29.793Z,0
2016-06-25T01:55:29.167Z,0
2016-06-25T01:56:29.159Z,0
2016-06-25T01:57:28.545Z,0
2016-06-25T01:58:28.538Z,0
2016-06-25T01:59:27.913Z,0
2016-06-25T02:00:28.517Z,0
2016-06-25T02:01:28.494Z,0
2016-06-25T02:02:29.720Z,0
2016-06-25T02:03:29.103Z,0
2016-06-25T02:04:27.873Z,0
2016-06-25T02:05:29.293Z,0
2016-06-25T02:06:29.111Z,0
2016-06-25T02:07:27.846Z,0
2016-06-25T02:08:27.840Z,0
2016-06-25T02:09:29.033Z,0
2016-06-25T02:10:29.014Z,0
2016-06-25T02:11:29.026Z,0
2016-06-25T02:12:28.383Z,0
2016-06-25T02:13:27.769Z,0
2016-06-25T02:14:29.613Z,0
2016-06-25T02:15:28.989Z,0
2016-06-25T02:16:28.995Z,0
2016-06-25T02:17:28.390Z,0
2016-06-25T02:18:28.351Z,0
2016-06-25T02:19:28.935Z,0
2016-06-25T02:20:28.347Z,0
2016-06-25T02:21:28.343Z,0
2016-06-25T02:22:28.321Z,0
2016-06-25T02:23:28.903Z,0
2016-06-25T02:24:28.286Z,0
2016-06-25T02:25:29.526Z,0
2016-06-25T02:26:28.262Z,0
2016-06-25T02:27:28.866Z,0
2016-06-25T02:28:28.871Z,0
2016-06-25T02:29:28.260Z,0
2016-06-25T02:30:28.839Z,0
2016-06-25T02:31:28.831Z,0
2016-06-25T02:32:28.216Z,0
2016-06-25T02:33:27.594Z,0
2016-06-25T02:34:28.825Z,0
2016-06-25T02:35:28.789Z,0
2016-06-25T02:36:28.806Z,0
2016-06-25T02:37:28.188Z,0
2016-06-25T02:38:28.782Z,0
2016-06-25T02:39:28.772Z,0
2016-06-25T02:40:28.770Z,0
2016-06-25T02:41:28.743Z,0
2016-06-25T02:42:28.735Z,0
2016-06-25T02:43:28.727Z,0
2016-06-25T02:44:28.725Z,0
2016-06-25T02:45:28.735Z,0
2016-06-25T02:46:28.736Z,0
2016-06-25T02:47:29.306Z,0
2016-06-25T02:48:28.678Z,4
2016-06-25T02:49:28.049Z,4
2016-06-25T02:50:28.043Z,0
2016-06-25T02:51:28.646Z,4
2016-06-25T02:52:28.031Z,4
2016-06-25T02:53:28.622Z,4
2016-06-25T02:54:27.995Z,4
2016-06-25T02:55:27.986Z,4
2016-06-25T02:56:27.998Z,8
2016-06-25T02:57:28.577Z,8
2016-06-25T02:58:27.380Z,12
2016-06-25T02:59:27.935Z,16
2016-06-25T03:00:27.945Z,16
2016-06-25T03:01:27.988Z,20
2016-06-25T03:02:27.923Z,20
2016-06-25T03:03:27.921Z,24
2016-06-25T03:04:27.894Z,24
2016-06-25T03:05:28.555Z,28
2016-06-25T03:06:28.502Z,28
2016-06-25T03:07:29.113Z,28
2016-06-25T03:08:28.474Z,28
2016-06-25T03:09:28.485Z,28
2016-06-25T03:10:28.471Z,32
2016-06-25T03:11:27.838Z,32
2016-06-25T03:12:28.437Z,44
2016-06-25T03:13:27.816Z,44
2016-06-25T03:14:27.210Z,48
2016-06-25T03:15:27.951Z,52
2016-06-25T03:16:27.795Z,56
2016-06-25T03:17:29.136Z,60
2016-06-25T03:18:27.921Z,60
2016-06-25T03:19:28.583Z,60
2016-06-25T03:20:28.591Z,68
2016-06-25T03:21:27.983Z,72
2016-06-25T03:22:29.331Z,76
2016-06-25T03:23:27.718Z,80
2016-06-25T03:24:28.966Z,80
2016-06-25T03:25:27.684Z,80
2016-06-25T03:26:28.315Z,84
2016-06-25T03:27:28.291Z,88
2016-06-25T03:28:28.292Z,92
2016-06-25T03:29:27.665Z,104
2016-06-25T03:30:27.667Z,108
2016-06-25T03:31:27.646Z,116
2016-06-25T03:32:27.642Z,124
2016-06-25T03:33:27.021Z,140
2016-06-25T03:34:28.845Z,152
2016-06-25T03:35:27.611Z,152
2016-06-25T03:36:28.217Z,156
2016-06-25T03:37:28.201Z,160
2016-06-25T03:38:28.203Z,164
2016-06-25T03:39:26.949Z,176
2016-06-25T03:40:27.548Z,212
2016-06-25T03:41:27.543Z,244
2016-06-25T03:42:28.754Z,268
2016-06-25T03:43:28.152Z,284
2016-06-25T03:44:28.135Z,308
2016-06-25T03:45:28.113Z,336
2016-06-25T03:46:27.508Z,340
2016-06-25T03:47:28.702Z,352
2016-06-25T03:48:27.474Z,360
2016-06-25T03:49:26.960Z,308
2016-06-25T03:50:26.850Z,264
2016-06-25T03:51:27.445Z,256
2016-06-25T03:52:28.069Z,268
2016-06-25T03:53:28.041Z,280
2016-06-25T03:54:28.030Z,268
2016-06-25T03:55:26.791Z,264
2016-06-25T03:56:27.403Z,260
2016-06-25T03:57:27.396Z,244
2016-06-25T03:58:27.376Z,232
2016-06-25T03:59:27.361Z,220
2016-06-25T04:00:27.359Z,216
2016-06-25T04:01:28.576Z,208
2016-06-25T04:02:26.730Z,196
2016-06-25T04:03:27.317Z,200
2016-06-25T04:04:26.703Z,208
2016-06-25T04:05:27.098Z,208
2016-06-25T04:06:27.317Z,204
2016-06-25T04:07:27.898Z,216
2016-06-25T04:08:27.881Z,244
2016-06-25T04:09:27.903Z,280
2016-06-25T04:10:27.258Z,332
2016-06-25T04:11:27.260Z,364
2016-06-25T04:12:28.449Z,408
2016-06-25T04:13:28.469Z,408
2016-06-25T04:14:28.450Z,444
2016-06-25T04:15:27.238Z,472
2016-06-25T04:16:27.827Z,480
2016-06-25T04:17:27.802Z,504
2016-06-25T04:18:28.407Z,520
2016-06-25T04:19:27.795Z,560
2016-06-25T04:20:27.171Z,588
2016-06-25T04:21:26.550Z,608
2016-06-25T04:22:27.767Z,688
2016-06-25T04:23:28.360Z,776
2016-06-25T04:24:26.538Z,860
2016-06-25T04:25:27.118Z,924
2016-06-25T04:26:27.708Z,972
2016-06-25T04:27:28.317Z,1020
2016-06-25T04:28:27.698Z,1044
2016-06-25T04:29:27.691Z,1064
2016-06-25T04:30:26.455Z,1084
2016-06-25T04:31:27.050Z,1004
2016-06-25T04:32:26.469Z,948
2016-06-25T04:33:27.098Z,928
2016-06-25T04:34:26.416Z,920
2016-06-25T04:35:28.262Z,900
2016-06-25T04:36:27.622Z,880
2016-06-25T04:37:26.995Z,856
2016-06-25T04:38:26.994Z,744
2016-06-25T04:39:26.962Z,684
2016-06-25T04:40:28.204Z,556
2016-06-25T04:41:27.591Z,516
2016-06-25T04:42:26.946Z,568
2016-06-25T04:43:28.220Z,720
2016-06-25T04:44:28.172Z,860
2016-06-25T04:45:27.534Z,860
2016-06-25T04:46:26.302Z,788
2016-06-25T04:47:26.896Z,704
2016-06-25T04:48:26.895Z,644
2016-06-25T04:49:27.490Z,616
2016-06-25T04:50:27.473Z,624
2016-06-25T04:51:26.247Z,660
2016-06-25T04:52:26.856Z,704
2016-06-25T04:53:27.475Z,720
2016-06-25T04:54:27.462Z,688
2016-06-25T04:55:27.453Z,628
2016-06-25T04:56:26.814Z,560
2016-06-25T04:57:27.435Z,524
2016-06-25T04:58:26.783Z,512
2016-06-25T04:59:27.395Z,536
2016-06-25T05:00:27.989Z,568
2016-06-25T05:01:26.786Z,600
2016-06-25T05:02:26.739Z,592
2016-06-25T05:03:28.011Z,580
2016-06-25T05:04:27.351Z,560
2016-06-25T05:05:26.945Z,536
2016-06-25T05:06:27.948Z,516
2016-06-25T05:07:26.720Z,524
2016-06-25T05:08:27.305Z,536
2016-06-25T05:09:27.917Z,556
2016-06-25T05:10:26.689Z,576
2016-06-25T05:11:27.275Z,592
2016-06-25T05:12:26.669Z,600
2016-06-25T05:13:27.275Z,604
2016-06-25T05:14:26.018Z,600
2016-06-25T05:15:27.271Z,592
2016-06-25T05:16:27.234Z,604
2016-06-25T05:17:27.226Z,620
2016-06-25T05:18:26.602Z,652
2016-06-25T05:19:27.218Z,692
2016-06-25T05:20:27.207Z,728
2016-06-25T05:21:26.574Z,744
2016-06-25T05:22:27.176Z,748
2016-06-25T05:23:26.575Z,760
2016-06-25T05:24:27.155Z,784
2016-06-25T05:25:25.913Z,824
2016-06-25T05:26:26.528Z,852
2016-06-25T05:27:27.124Z,872
2016-06-25T05:28:27.113Z,888
2016-06-25T05:29:26.510Z,896
2016-06-25T05:30:27.092Z,896
2016-06-25T05:31:26.486Z,912
2016-06-25T05:32:25.852Z,936
2016-06-25T05:33:27.095Z,952
2016-06-25T05:34:27.080Z,936
2016-06-25T05:35:26.455Z,892
2016-06-25T05:36:25.831Z,836
2016-06-25T05:37:27.639Z,776
2016-06-25T05:38:27.027Z,724
2016-06-25T05:39:27.022Z,668
2016-06-25T05:40:27.613Z,628
2016-06-25T05:41:27.009Z,612
2016-06-25T05:42:26.370Z,612
2016-06-25T05:43:26.360Z,632
2016-06-25T05:44:26.945Z,680
2016-06-25T05:45:26.965Z,728
2016-06-25T05:46:26.319Z,744
2016-06-25T05:47:26.958Z,708
2016-06-25T05:48:26.310Z,624
2016-06-25T05:49:27.526Z,536
2016-06-25T05:50:26.897Z,472
2016-06-25T05:51:26.911Z,436
2016-06-25T05:52:25.661Z,416
2016-06-25T05:53:26.276Z,424
2016-06-25T05:54:26.869Z,444
2016-06-25T05:55:26.844Z,472
2016-06-25T05:56:26.240Z,504
2016-06-25T05:57:26.830Z,532
2016-06-25T05:58:27.432Z,544
2016-06-25T05:59:26.199Z,544
2016-06-25T06:00:25.602Z,540
2016-06-25T06:01:26.804Z,520
2016-06-25T06:02:26.167Z,492
2016-06-25T06:03:27.424Z,452
2016-06-25T06:04:26.147Z,416
2016-06-25T06:05:27.160Z,408
2016-06-25T06:06:26.779Z,424
2016-06-25T06:07:26.744Z,456
2016-06-25T06:08:25.493Z,496
2016-06-25T06:09:27.376Z,544
2016-06-25T06:10:27.328Z,584
2016-06-25T06:11:26.737Z,608
2016-06-25T06:12:26.683Z,616
2016-06-25T06:13:26.066Z,632
2016-06-25T06:14:26.060Z,672
2016-06-25T06:15:26.663Z,748
2016-06-25T06:16:26.658Z,844
2016-06-25T06:17:27.266Z,916
2016-06-25T06:18:26.637Z,932
2016-06-25T06:19:27.260Z,900
2016-06-25T06:20:26.006Z,832
2016-06-25T06:21:25.379Z,764
2016-06-25T06:22:25.979Z,696
2016-06-25T06:23:26.589Z,636
2016-06-25T06:24:25.955Z,588
2016-06-25T06:25:26.603Z,560
2016-06-25T06:26:26.555Z,560
2016-06-25T06:27:25.339Z,564
2016-06-25T06:28:26.537Z,588
2016-06-25T06:29:26.537Z,624
2016-06-25T06:30:27.820Z,664
2016-06-25T06:31:27.138Z,712
2016-06-25T06:32:26.502Z,748
2016-06-25T06:33:26.492Z,768
2016-06-25T06:34:25.860Z,776
2016-06-25T06:35:26.479Z,788
2016-06-25T06:36:25.851Z,796
2016-06-25T06:37:26.447Z,804
2016-06-25T06:38:27.075Z,808
2016-06-25T06:39:25.873Z,812
2016-06-25T06:40:25.870Z,824
2016-06-25T06:41:26.445Z,832
2016-06-25T06:42:25.786Z,848
2016-06-25T06:43:25.778Z,860
2016-06-25T06:44:26.999Z,884
2016-06-25T06:45:26.990Z,916
2016-06-25T06:46:26.360Z,952
2016-06-25T06:47:26.962Z,984
2016-06-25T06:48:26.360Z,1028
2016-06-25T06:49:26.342Z,1068
2016-06-25T06:50:25.706Z,1120
2016-06-25T06:51:25.700Z,1164
2016-06-25T06:52:26.289Z,1212
2016-06-25T06:53:26.302Z,1268
2016-06-25T06:54:25.690Z,1324
2016-06-25T06:55:26.265Z,1392
2016-06-25T06:56:25.647Z,1476
2016-06-25T06:57:26.859Z,1556
2016-06-25T06:58:26.971Z,1644
2016-06-25T06:59:26.877Z,1732
2016-06-25T07:00:26.225Z,1816
2016-06-25T07:01:26.835Z,1896
2016-06-25T07:02:26.223Z,1972
2016-06-25T07:03:25.583Z,2036
2016-06-25T07:04:26.798Z,2104
2016-06-25T07:05:25.581Z,2168
2016-06-25T07:06:25.564Z,2220
2016-06-25T07:07:26.151Z,2276
2016-06-25T07:08:26.141Z,2332
2016-06-25T07:09:26.113Z,2400
2016-06-25T07:10:26.125Z,2464
2016-06-25T07:11:26.120Z,2520
2016-06-25T07:12:25.505Z,2576
2016-06-25T07:13:25.478Z,2620
2016-06-25T07:14:26.690Z,2668
2016-06-25T07:15:26.104Z,2716
2016-06-25T07:16:25.460Z,2760
2016-06-25T07:17:25.442Z,2788
2016-06-25T07:18:25.421Z,2808
2016-06-25T07:19:25.436Z,2824
2016-06-25T07:20:26.030Z,2828
2016-06-25T07:21:24.781Z,2824
2016-06-25T07:22:25.989Z,2832
2016-06-25T07:23:26.001Z,2840
2016-06-25T07:24:24.744Z,2856
2016-06-25T07:25:25.976Z,2880
2016-06-25T07:26:25.362Z,2952
2016-06-25T07:27:26.620Z,3000
2016-06-25T07:28:25.329Z,2996
2016-06-25T07:29:25.301Z,3036
2016-06-25T07:30:25.318Z,3064
2016-06-25T07:31:25.916Z,3044
2016-06-25T07:32:25.299Z,3016
2016-06-25T07:33:25.889Z,2996
2016-06-25T07:34:25.261Z,2940
2016-06-25T07:35:25.886Z,2932
2016-06-25T07:36:26.494Z,2932
2016-06-25T07:37:25.849Z,2932
2016-06-25T07:38:26.484Z,2892
2016-06-25T07:39:25.212Z,2904
2016-06-25T07:40:26.445Z,2920
2016-06-25T07:41:26.433Z,2940
2016-06-25T07:42:24.589Z,3000
2016-06-25T07:43:24.618Z,3020
2016-06-25T07:44:26.401Z,3132
2016-06-25T07:45:25.799Z,3276
2016-06-25T07:46:25.142Z,3416
2016-06-25T07:47:25.772Z,3536
2016-06-25T07:48:25.738Z,3720
2016-06-25T07:49:25.129Z,3816
2016-06-25T07:50:25.726Z,4108
2016-06-25T07:51:25.751Z,4324
2016-06-25T07:52:26.342Z,4400
2016-06-25T07:53:25.726Z,3892
2016-06-25T07:54:25.683Z,2908
2016-06-25T07:55:25.674Z,2432
2016-06-25T07:56:24.431Z,2460
2016-06-25T07:57:25.051Z,2244
2016-06-25T07:58:25.043Z,2520
2016-06-25T07:59:26.246Z,2580
2016-06-25T08:00:25.622Z,2940
2016-06-25T08:01:25.620Z,2584
2016-06-25T08:02:26.232Z,2112
2016-06-25T08:03:24.975Z,1764
2016-06-25T08:04:25.594Z,1144
2016-06-25T08:05:26.795Z,780
2016-06-25T08:06:25.575Z,676
2016-06-25T08:07:25.555Z,620
2016-06-25T08:08:24.941Z,840
2016-06-25T08:09:24.942Z,872
2016-06-25T08:10:26.153Z,1028
2016-06-25T08:11:24.942Z,1056
2016-06-25T08:12:25.523Z,1152
2016-06-25T08:13:26.126Z,1000
2016-06-25T08:14:24.268Z,860
2016-06-25T08:15:25.489Z,696
2016-06-25T08:16:24.876Z,684
2016-06-25T08:17:24.861Z,664
2016-06-25T08:18:24.241Z,736
2016-06-25T08:19:25.461Z,828
2016-06-25T08:20:24.836Z,860
2016-06-25T08:21:24.197Z,872
2016-06-25T08:22:24.844Z,824
2016-06-25T08:23:25.405Z,828
2016-06-25T08:24:24.770Z,844
2016-06-25T08:25:24.802Z,880
2016-06-25T08:26:25.421Z,940
2016-06-25T08:27:26.023Z,936
2016-06-25T08:28:26.002Z,996
2016-06-25T08:29:25.356Z,1024
2016-06-25T08:30:24.722Z,1064
2016-06-25T08:31:25.333Z,1032
2016-06-25T08:32:25.319Z,980
2016-06-25T08:33:24.083Z,940
2016-06-25T08:34:25.310Z,956
2016-06-25T08:35:25.293Z,932
2016-06-25T08:36:25.290Z,968
2016-06-25T08:37:24.277Z,1064
2016-06-25T08:38:25.256Z,1108
2016-06-25T08:39:24.649Z,1136
2016-06-25T08:40:24.635Z,1092
2016-06-25T08:41:24.625Z,1056
2016-06-25T08:42:24.619Z,1060
2016-06-25T08:43:24.616Z,1108
2016-06-25T08:44:25.211Z,1172
2016-06-25T08:45:25.191Z,1280
2016-06-25T08:46:23.958Z,1400
2016-06-25T08:47:25.786Z,1496
2016-06-25T08:48:24.545Z,1552
2016-06-25T08:49:25.162Z,1560
2016-06-25T08:50:25.749Z,1508
2016-06-25T08:51:25.121Z,1432
2016-06-25T08:52:24.526Z,1404
2016-06-25T08:53:24.747Z,1340
2016-06-25T08:54:25.101Z,1272
2016-06-25T08:55:25.108Z,1228
2016-06-25T08:56:25.695Z,1184
2016-06-25T08:57:23.893Z,1192
2016-06-25T08:58:25.078Z,1272
2016-06-25T08:59:25.067Z,1444
2016-06-25T09:00:24.436Z,1608
2016-06-25T09:01:25.035Z,1644
2016-06-25T09:02:24.404Z,1500
2016-06-25T09:03:25.022Z,1312
2016-06-25T09:04:24.997Z,1184
2016-06-25T09:05:24.386Z,1140
2016-06-25T09:06:24.986Z,1192
2016-06-25T09:07:24.364Z,1244
2016-06-25T09:08:24.986Z,1208
2016-06-25T09:09:24.966Z,1280
2016-06-25T09:10:25.557Z,1232
2016-06-25T09:11:24.989Z,1108
2016-06-25T09:12:24.931Z,1004
2016-06-25T09:13:24.918Z,928
2016-06-25T09:14:24.914Z,904
2016-06-25T09:15:24.883Z,856
2016-06-25T09:16:23.656Z,944
2016-06-25T09:17:24.895Z,976
2016-06-25T09:18:24.869Z,1000
2016-06-25T09:19:24.245Z,1032
2016-06-25T09:20:23.622Z,1092
2016-06-25T09:21:24.242Z,1104
2016-06-25T09:22:24.474Z,1120
2016-06-25T09:23:25.474Z,1156
2016-06-25T09:24:24.860Z,1212
2016-06-25T09:25:24.829Z,1292
2016-06-25T09:26:24.791Z,1376
2016-06-25T09:27:24.790Z,1452
2016-06-25T09:28:24.770Z,1512
2016-06-25T09:29:24.155Z,1556
2016-06-25T09:30:24.175Z,1604
2016-06-25T09:31:24.759Z,1660
2016-06-25T09:32:25.406Z,1724
2016-06-25T09:33:25.358Z,1788
2016-06-25T09:34:24.728Z,1904
2016-06-25T09:35:24.724Z,2100
2016-06-25T09:36:24.126Z,2336
2016-06-25T09:37:24.074Z,2424
2016-06-25T09:38:25.295Z,2348
2016-06-25T09:39:23.439Z,2264
2016-06-25T09:40:23.427Z,2312
2016-06-25T09:41:24.049Z,2492
2016-06-25T09:42:24.014Z,2640
2016-06-25T09:43:24.662Z,2644
2016-06-25T09:44:24.624Z,2536
2016-06-25T09:45:24.620Z,2404
2016-06-25T09:46:24.592Z,2356
2016-06-25T09:47:25.203Z,2376
2016-06-25T09:48:24.586Z,2424
2016-06-25T09:49:24.597Z,2488
2016-06-25T09:50:23.969Z,2480
2016-06-25T09:51:23.959Z,2308
2016-06-25T09:52:25.166Z,2076
2016-06-25T09:53:23.309Z,1900
2016-06-25T09:54:23.301Z,1712
2016-06-25T09:55:23.281Z,1552
2016-06-25T09:56:23.902Z,1428
2016-06-25T09:57:25.107Z,1372
2016-06-25T09:58:24.487Z,1352
2016-06-25T09:59:23.853Z,1356
2016-06-25T10:00:23.854Z,1400
2016-06-25T10:01:25.075Z,1492
2016-06-25T10:02:23.846Z,1536
2016-06-25T10:03:24.434Z,1484
2016-06-25T10:04:23.808Z,1424
2016-06-25T10:05:24.423Z,1400
2016-06-25T10:06:24.415Z,1336
2016-06-25T10:07:23.785Z,1292
2016-06-25T10:08:23.765Z,1288
2016-06-25T10:09:24.380Z,1328
2016-06-25T10:10:23.763Z,1244
2016-06-25T10:11:23.751Z,1188
2016-06-25T10:12:23.720Z,1404
2016-06-25T10:13:24.337Z,1528
2016-06-25T10:14:24.356Z,1368
2016-06-25T10:15:23.696Z,1304
2016-06-25T10:16:23.709Z,1312
2016-06-25T10:17:24.907Z,1268
2016-06-25T10:18:23.667Z,1228
2016-06-25T10:19:23.664Z,1212
2016-06-25T10:20:24.293Z,1192
2016-06-25T10:21:23.635Z,1200
2016-06-25T10:22:24.267Z,1228
2016-06-25T10:23:24.855Z,1324
2016-06-25T10:24:24.211Z,1488
2016-06-25T10:25:24.246Z,1608
2016-06-25T10:26:24.289Z,1820
2016-06-25T10:27:23.576Z,1936
2016-06-25T10:28:23.577Z,2048
2016-06-25T10:29:24.381Z,2076
2016-06-25T10:30:24.202Z,1904
2016-06-25T10:31:24.150Z,1816
2016-06-25T10:32:23.557Z,1688
2016-06-25T10:33:22.910Z,1536
2016-06-25T10:34:23.526Z,1456
2016-06-25T10:35:23.496Z,1404
2016-06-25T10:36:23.502Z,1388
2016-06-25T10:37:24.100Z,1320
2016-06-25T10:38:24.085Z,1340
2016-06-25T10:39:24.069Z,1400
2016-06-25T10:40:23.436Z,1392
2016-06-25T10:41:23.455Z,1484
2016-06-25T10:42:22.816Z,1676
2016-06-25T10:43:24.649Z,1888
2016-06-25T10:44:23.399Z,2052
2016-06-25T10:45:24.036Z,2124
2016-06-25T10:46:23.405Z,2188
2016-06-25T10:47:23.383Z,2204
2016-06-25T10:48:24.598Z,2368
2016-06-25T10:49:24.587Z,2124
2016-06-25T10:50:24.610Z,1828
2016-06-25T10:51:23.951Z,1724
2016-06-25T10:52:23.719Z,1800
2016-06-25T10:53:23.327Z,2056
2016-06-25T10:54:22.729Z,2332
2016-06-25T10:55:23.306Z,2504
2016-06-25T10:56:23.910Z,2244
2016-06-25T10:57:23.873Z,2056
2016-06-25T10:58:23.899Z,2100
2016-06-25T10:59:24.491Z,2252
2016-06-25T11:00:23.851Z,2428
2016-06-25T11:01:23.846Z,2248
2016-06-25T11:02:23.275Z,2444
2016-06-25T11:03:22.609Z,2416
2016-06-25T11:04:24.428Z,2264
2016-06-25T11:05:23.213Z,2360
2016-06-25T11:06:23.204Z,2612
2016-06-25T11:07:23.800Z,2760
2016-06-25T11:08:23.766Z,2528
2016-06-25T11:09:23.754Z,2168
2016-06-25T11:10:23.145Z,1964
2016-06-25T11:11:24.351Z,1576
2016-06-25T11:12:22.560Z,2224
2016-06-25T11:13:23.162Z,2324
2016-06-25T11:14:22.487Z,2332
2016-06-25T11:15:23.086Z,2968
2016-06-25T11:16:23.087Z,2968
2016-06-25T11:17:23.715Z,2812
2016-06-25T11:18:23.094Z,2604
2016-06-25T11:19:23.693Z,2136
2016-06-25T11:20:23.043Z,2520
2016-06-25T11:21:23.650Z,2532
2016-06-25T11:22:23.667Z,2660
2016-06-25T11:23:22.399Z,2652
2016-06-25T11:24:23.010Z,2832
2016-06-25T11:25:23.015Z,2724
2016-06-25T11:26:23.001Z,2668
2016-06-25T11:27:23.014Z,2192
2016-06-25T11:28:24.208Z,3152
2016-06-25T11:29:23.581Z,3068
2016-06-25T11:30:24.178Z,3172
2016-06-25T11:31:24.159Z,3292
2016-06-25T11:32:23.570Z,3208
2016-06-25T11:33:22.919Z,3008
2016-06-25T11:34:23.529Z,3180
2016-06-25T11:35:22.908Z,3524
2016-06-25T11:36:22.902Z,3764
2016-06-25T11:37:22.881Z,3880
2016-06-25T11:38:23.324Z,3524
2016-06-25T11:39:23.506Z,3784
2016-06-25T11:40:24.100Z,3332
2016-06-25T11:41:23.455Z,3644
2016-06-25T11:42:22.819Z,2828
2016-06-25T11:43:23.422Z,2292
2016-06-25T11:44:22.821Z,2284
2016-06-25T11:45:23.413Z,2260
2016-06-25T11:46:23.404Z,2332
2016-06-25T11:47:23.398Z,2648
2016-06-25T11:48:23.399Z,2072
2016-06-25T11:49:23.359Z,2552
2016-06-25T11:50:22.774Z,2720
2016-06-25T11:51:23.975Z,2888
2016-06-25T11:52:22.146Z,2784
2016-06-25T11:53:23.994Z,2928
2016-06-25T11:54:22.747Z,2884
2016-06-25T11:55:23.362Z,2672
2016-06-25T11:56:23.328Z,2364
2016-06-25T11:57:23.529Z,2568
2016-06-25T11:58:22.691Z,2752
2016-06-25T11:59:22.681Z,2788
2016-06-25T12:00:22.702Z,2460
2016-06-25T12:01:23.957Z,2600
2016-06-25T12:02:23.874Z,2552
2016-06-25T12:03:23.867Z,2552
2016-06-25T12:04:23.858Z,2192
2016-06-25T12:05:22.010Z,1912
2016-06-25T12:06:24.072Z,2080
2016-06-25T12:07:23.239Z,1820
2016-06-25T12:08:23.204Z,1568
2016-06-25T12:09:23.836Z,1604
2016-06-25T12:10:22.546Z,1892
2016-06-25T12:11:23.374Z,1512
2016-06-25T12:12:23.163Z,1460
2016-06-25T12:13:24.269Z,1796
2016-06-25T12:14:21.911Z,1928
2016-06-25T12:15:23.129Z,2020
2016-06-25T12:16:22.521Z,2472
2016-06-25T12:17:23.770Z,2740
2016-06-25T12:18:22.475Z,2688
2016-06-25T12:19:23.129Z,2608
2016-06-25T12:20:21.882Z,2468
2016-06-25T12:21:23.063Z,2432
2016-06-25T12:22:22.444Z,2860
2016-06-25T12:23:23.090Z,3096
2016-06-25T12:24:22.424Z,2820
2016-06-25T12:25:23.650Z,3080
2016-06-25T12:26:22.376Z,3732
2016-06-25T12:27:22.370Z,4132
2016-06-25T12:28:22.973Z,3680
2016-06-25T12:29:22.990Z,3540
2016-06-25T12:30:22.339Z,4124
2016-06-25T12:31:21.725Z,4364
2016-06-25T12:32:22.328Z,4364
2016-06-25T12:33:23.552Z,4568
2016-06-25T12:34:22.316Z,4544
2016-06-25T12:35:22.916Z,4020
2016-06-25T12:36:22.280Z,3584
2016-06-25T12:37:22.900Z,3208
2016-06-25T12:38:22.313Z,3556
2016-06-25T12:39:22.307Z,4116
2016-06-25T12:40:22.879Z,3340
2016-06-25T12:41:23.463Z,3056
2016-06-25T12:42:22.845Z,3280
2016-06-25T12:43:22.211Z,3000
2016-06-25T12:44:21.607Z,3256
2016-06-25T12:45:22.189Z,3260
2016-06-25T12:46:22.741Z,3440
2016-06-25T12:47:22.800Z,3372
2016-06-25T12:48:22.197Z,3800
2016-06-25T12:49:22.767Z,3648
2016-06-25T12:50:22.156Z,3928
2016-06-25T12:51:23.351Z,3876
2016-06-25T12:52:23.354Z,4184
2016-06-25T12:53:21.536Z,4256
2016-06-25T12:54:22.098Z,3900
2016-06-25T12:55:22.096Z,3688
2016-06-25T12:56:22.697Z,3848
2016-06-25T12:57:22.696Z,3620
2016-06-25T12:58:22.684Z,4596
2016-06-25T12:59:22.059Z,4776
2016-06-25T13:00:22.059Z,4348
2016-06-25T13:01:22.665Z,4240
2016-06-25T13:02:23.278Z,4908
2016-06-25T13:03:22.014Z,5420
2016-06-25T13:04:22.620Z,5544
2016-06-25T13:05:21.989Z,5944
2016-06-25T13:06:23.220Z,6308
2016-06-25T13:07:22.005Z,6196
2016-06-25T13:08:22.583Z,6660
2016-06-25T13:09:23.217Z,6896
2016-06-25T13:10:21.973Z,7176
2016-06-25T13:11:23.170Z,6856
2016-06-25T13:12:22.532Z,5208
2016-06-25T13:13:21.309Z,4160
2016-06-25T13:14:23.140Z,3576
2016-06-25T13:15:22.518Z,4524
2016-06-25T13:16:22.518Z,4936
2016-06-25T13:17:21.878Z,6900
2016-06-25T13:18:21.861Z,4824
2016-06-25T13:19:23.073Z,3508
2016-06-25T13:20:23.076Z,5468
2016-06-25T13:21:22.481Z,5612
2016-06-25T13:22:22.424Z,4620
2016-06-25T13:23:22.493Z,2384
2016-06-25T13:24:22.443Z,1144
2016-06-25T13:25:22.412Z,1708
2016-06-25T13:26:21.821Z,2704
2016-06-25T13:27:23.007Z,3076
2016-06-25T13:28:22.379Z,3216
2016-06-25T13:29:21.759Z,2744
2016-06-25T13:30:22.995Z,2952
2016-06-25T13:31:21.742Z,2500
2016-06-25T13:32:22.983Z,2236
2016-06-25T13:33:22.329Z,2532
2016-06-25T13:34:22.333Z,2752
2016-06-25T13:35:22.314Z,3936
2016-06-25T13:36:23.000Z,4280
2016-06-25T13:37:21.687Z,3664
2016-06-25T13:38:22.307Z,3304
2016-06-25T13:39:22.353Z,2508
2016-06-25T13:40:22.389Z,3268
2016-06-25T13:41:22.893Z,3188
2016-06-25T13:42:22.847Z,3784
2016-06-25T13:43:22.258Z,2768
2016-06-25T13:44:21.611Z,3136
2016-06-25T13:45:22.246Z,2860